createdAt,value
2018-12-20T00:00:50.707Z,99413.91
2018-12-20T00:03:19.291Z,99413.94
2018-12-20T00:05:47.783Z,99418.70
2018-12-20T00:08:16.379Z,99417.81
2018-12-20T00:10:45.009Z,99414.33
2018-12-20T00:13:13.479Z,99419.13
2018-12-20T00:15:42.145Z,99413.94
2018-12-20T00:18:10.825Z,99425.28
2018-12-20T00:20:39.455Z,99414.33
2018-12-20T00:23:08.089Z,99416.55
2018-12-20T00:25:43.084Z,99418.75
2018-12-20T00:28:11.627Z,99421.78
2018-12-20T00:30:40.263Z,99413.56
2018-12-20T00:33:08.790Z,99416.17
2018-12-20T00:35:37.393Z,99419.63
2018-12-20T00:38:06.036Z,99425.74
2018-12-20T00:40:34.717Z,99422.70
2018-12-20T00:43:03.434Z,99425.74
2018-12-20T00:45:32.136Z,99427.89
2018-12-20T00:48:00.708Z,99420.09
2018-12-20T00:50:29.509Z,99411.80
2018-12-20T00:52:58.227Z,99415.67
2018-12-20T00:55:35.572Z,99420.05
2018-12-20T00:58:04.158Z,99424.86
2018-12-20T01:00:32.767Z,99422.67
2018-12-20T01:03:01.289Z,99416.59
2018-12-20T01:05:29.989Z,99414.41
2018-12-20T01:07:58.697Z,99415.25
2018-12-20T01:10:27.281Z,99427.47
2018-12-20T01:12:55.737Z,99416.17
2018-12-20T01:15:24.330Z,99421.83
2018-12-20T01:17:52.920Z,99418.38
2018-12-20T01:20:34.493Z,99410.95
2018-12-20T01:23:03.117Z,99418.79
2018-12-20T01:25:31.625Z,99416.17
2018-12-20T01:28:00.126Z,99419.17
2018-12-20T01:30:28.682Z,99419.17
2018-12-20T01:32:57.375Z,99418.70
2018-12-20T01:35:26.101Z,99414.32
2018-12-20T01:37:54.815Z,99420.43
2018-12-20T01:40:23.509Z,99421.27
2018-12-20T01:42:52.059Z,99424.30
2018-12-20T01:45:20.726Z,99434.30
2018-12-20T01:47:49.223Z,99436.03
2018-12-20T01:50:17.839Z,99424.73
2018-12-20T01:52:46.433Z,99430.42
2018-12-20T01:55:15.140Z,99430.42
2018-12-20T01:57:43.747Z,99426.50
2018-12-20T02:00:12.522Z,99416.93
2018-12-20T02:02:41.252Z,99425.20
2018-12-20T02:05:09.975Z,99421.73
2018-12-20T02:07:38.791Z,99425.23
2018-12-20T02:10:07.415Z,99430.92
2018-12-20T02:12:36.099Z,99427.43
2018-12-20T02:15:05.551Z,99336.16
2018-12-20T02:17:34.249Z,99429.66
2018-12-20T02:20:02.838Z,99420.59
2018-12-20T02:22:31.424Z,99416.26
2018-12-20T02:25:00.812Z,99421.94
2018-12-20T02:27:29.447Z,99414.98
2018-12-20T02:29:58.013Z,99407.15
2018-12-20T02:32:26.794Z,99417.17
2018-12-20T02:34:55.631Z,99406.73
2018-12-20T02:37:24.331Z,99405.00
2018-12-20T02:39:52.803Z,99411.03
2018-12-20T02:42:21.319Z,99402.78
2018-12-20T02:44:50.052Z,99402.81
2018-12-20T02:47:20.708Z,99400.59
2018-12-20T02:49:49.215Z,99401.89
2018-12-20T02:52:17.769Z,99398.85
2018-12-20T02:54:46.671Z,99403.16
2018-12-20T02:57:15.377Z,99399.23
2018-12-20T02:59:43.949Z,99393.59
2018-12-20T03:02:12.500Z,99392.25
2018-12-20T03:04:41.020Z,99387.91
2018-12-20T03:07:09.641Z,99387.91
2018-12-20T03:09:38.089Z,99382.64
2018-12-20T03:12:06.677Z,99386.55
2018-12-20T03:14:35.252Z,99380.86
2018-12-20T03:17:04.094Z,99383.44
2018-12-20T03:19:32.823Z,99384.78
2018-12-20T03:22:01.491Z,99378.72
2018-12-20T03:24:30.313Z,99382.63
2018-12-20T03:26:58.838Z,99379.98
2018-12-20T03:29:27.405Z,99373.41
2018-12-20T03:31:55.998Z,99376.91
2018-12-20T03:34:24.635Z,99374.75
2018-12-20T03:36:53.283Z,99379.56
2018-12-20T03:39:21.842Z,99369.53
2018-12-20T03:41:50.490Z,99376.95
2018-12-20T03:44:19.078Z,99385.25
2018-12-20T03:46:47.890Z,99373.88
2018-12-20T03:49:16.610Z,99369.15
2018-12-20T03:51:45.516Z,99372.66
2018-12-20T03:54:14.375Z,99363.46
2018-12-20T03:56:42.960Z,99365.66
2018-12-20T03:59:11.592Z,99364.35
2018-12-20T04:01:40.657Z,99368.31
2018-12-20T04:04:09.505Z,99363.92
2018-12-20T04:06:38.175Z,99369.62
2018-12-20T04:09:08.046Z,99364.81
2018-12-20T04:11:36.607Z,99364.39
2018-12-20T04:14:05.169Z,99365.70
2018-12-20T04:16:33.914Z,99362.62
2018-12-20T04:19:02.579Z,99364.35
2018-12-20T04:21:31.551Z,99372.19
2018-12-20T04:24:00.347Z,99372.19
2018-12-20T04:26:29.059Z,99372.19
2018-12-20T04:28:57.666Z,99366.53
2018-12-20T04:31:26.278Z,99369.58
2018-12-20T04:33:54.891Z,99377.45
2018-12-20T04:36:23.747Z,99379.19
2018-12-20T04:38:52.456Z,99382.21
2018-12-20T04:41:21.101Z,99374.80
2018-12-20T04:43:49.882Z,99370.46
2018-12-20T04:46:18.423Z,99366.95
2018-12-20T04:48:47.398Z,99365.66
2018-12-20T04:51:16.072Z,99361.31
2018-12-20T04:53:44.661Z,99367.34
2018-12-20T04:56:13.227Z,99374.80
2018-12-20T04:58:41.765Z,99366.53
2018-12-20T05:01:10.342Z,99369.11
2018-12-20T05:03:39.249Z,99361.31
2018-12-20T05:06:08.005Z,99363.42
2018-12-20T05:08:36.935Z,99374.75
2018-12-20T05:11:05.619Z,99364.35
2018-12-20T05:13:34.170Z,99378.72
2018-12-20T05:16:02.916Z,99247.63
2018-12-20T05:18:31.547Z,99381.80
2018-12-20T05:21:00.498Z,99379.64
2018-12-20T05:23:29.312Z,99392.70
2018-12-20T05:25:58.222Z,99393.17
2018-12-20T05:28:26.790Z,99403.58
2018-12-20T05:30:55.347Z,99423.17
2018-12-20T05:33:23.973Z,99411.45
2018-12-20T05:35:52.715Z,99399.70
2018-12-20T05:38:21.407Z,99408.88
2018-12-20T05:40:50.295Z,99399.73
2018-12-20T05:43:18.883Z,99398.47
2018-12-20T05:45:47.437Z,99402.78
2018-12-20T05:48:15.976Z,99406.27
2018-12-20T05:50:44.830Z,99406.66
2018-12-20T05:53:13.427Z,99405.34
2018-12-20T05:55:42.017Z,99406.19
2018-12-20T05:58:10.626Z,99355.12
2018-12-20T06:00:39.233Z,99405.27
2018-12-20T06:03:08.029Z,99410.11
2018-12-20T06:05:36.642Z,99408.34
2018-12-20T06:08:05.351Z,99420.52
2018-12-20T06:10:33.998Z,99491.52
2018-12-20T06:13:02.686Z,99411.88
2018-12-20T06:15:31.284Z,99415.75
2018-12-20T06:18:00.025Z,99418.41
2018-12-20T06:20:28.602Z,99412.76
2018-12-20T06:22:57.186Z,99410.65
2018-12-20T06:25:25.722Z,99415.45
2018-12-20T06:27:54.202Z,99418.06
2018-12-20T06:30:22.702Z,99417.21
2018-12-20T06:32:51.322Z,99416.76
2018-12-20T06:35:19.781Z,99397.31
2018-12-20T06:37:48.289Z,99411.99
2018-12-20T06:40:16.783Z,99414.14
2018-12-20T06:42:45.319Z,99422.44
2018-12-20T06:45:13.928Z,99425.90
2018-12-20T06:47:42.507Z,99422.86
2018-12-20T06:50:11.052Z,99425.90
2018-12-20T06:52:39.586Z,99421.09
2018-12-20T06:55:08.125Z,99430.27
2018-12-20T06:57:36.698Z,99434.19
2018-12-20T07:00:05.538Z,99430.23
2018-12-20T07:02:34.126Z,99433.70
2018-12-20T07:05:02.883Z,99452.89
2018-12-20T07:07:31.422Z,99455.51
2018-12-20T07:09:59.962Z,99435.92
2018-12-20T07:12:28.450Z,99430.23
2018-12-20T07:14:57.082Z,99431.09
2018-12-20T07:17:25.573Z,99432.39
2018-12-20T07:19:54.317Z,99431.97
2018-12-20T07:25:12.856Z,99446.75
2018-12-20T07:27:41.458Z,99444.56
2018-12-20T07:30:10.977Z,99443.26
2018-12-20T07:32:39.587Z,99443.22
2018-12-20T07:35:08.288Z,99441.45
2018-12-20T07:37:37.052Z,99440.53
2018-12-20T07:40:07.182Z,99447.45
2018-12-20T07:42:35.672Z,99449.63
2018-12-20T07:45:04.651Z,99444.83
2018-12-20T07:47:33.184Z,99447.83
2018-12-20T07:50:01.724Z,99450.48
2018-12-20T07:52:30.387Z,99450.02
2018-12-20T07:54:58.909Z,99451.33
2018-12-20T07:57:27.656Z,99453.94
2018-12-20T07:59:56.240Z,99453.05
2018-12-20T08:02:24.806Z,99460.47
2018-12-20T08:04:53.262Z,99463.08
2018-12-20T08:07:22.065Z,99455.62
2018-12-20T08:09:50.932Z,99464.77
2018-12-20T08:12:19.479Z,99466.45
2018-12-20T08:14:48.059Z,99466.45
2018-12-20T08:17:16.555Z,99460.31
2018-12-20T08:19:45.136Z,99469.45
2018-12-20T08:22:13.621Z,99472.03
2018-12-20T08:24:42.173Z,99476.83
2018-12-20T08:27:10.654Z,99475.98
2018-12-20T08:29:39.271Z,99475.06
2018-12-20T08:32:07.828Z,99484.63
2018-12-20T08:34:36.335Z,99480.24
2018-12-20T08:37:04.925Z,99490.70
2018-12-20T08:39:33.524Z,99485.47
2018-12-20T08:42:02.016Z,99492.90
2018-12-20T08:44:30.630Z,99496.81
2018-12-20T08:46:59.382Z,99492.43
2018-12-20T08:49:29.499Z,99496.34
2018-12-20T08:51:57.997Z,99512.91
2018-12-20T08:54:26.478Z,99496.81
2018-12-20T08:56:55.161Z,99503.31
2018-12-20T08:59:23.716Z,99508.07
2018-12-20T09:01:52.230Z,99499.38
2018-12-20T09:04:20.757Z,99496.77
2018-12-20T09:06:49.413Z,99509.89
2018-12-20T09:09:17.969Z,99513.80
2018-12-20T09:11:46.523Z,99507.81
2018-12-20T09:14:16.225Z,99507.35
2018-12-20T09:16:45.454Z,99515.77
2018-12-20T09:19:14.289Z,99515.31
2018-12-20T09:21:42.845Z,99509.23
2018-12-20T09:24:11.498Z,99521.45
2018-12-20T09:26:40.157Z,99515.34
2018-12-20T09:29:08.772Z,99512.30
2018-12-20T09:31:37.587Z,99511.39
2018-12-20T09:34:06.709Z,99511.81
2018-12-20T09:36:38.126Z,99512.63
2018-12-20T09:39:08.987Z,99506.51
2018-12-20T09:41:37.534Z,99384.79
2018-12-20T09:44:07.600Z,99511.27
2018-12-20T09:46:36.229Z,99512.16
2018-12-20T09:49:04.761Z,99517.39
2018-12-20T09:51:33.367Z,99525.61
2018-12-20T09:54:01.886Z,99522.61
2018-12-20T09:56:30.595Z,99533.95
2018-12-20T09:58:59.147Z,99526.11
2018-12-20T10:01:27.805Z,99520.87
2018-12-20T10:03:56.351Z,99518.69
2018-12-20T10:06:24.870Z,99512.16
2018-12-20T10:08:53.489Z,99522.15
2018-12-20T10:11:22.000Z,99510.42
2018-12-20T10:13:50.468Z,99513.00
2018-12-20T10:16:19.173Z,99511.27
2018-12-20T10:18:47.766Z,99383.87
2018-12-20T10:21:17.222Z,99504.27
2018-12-20T10:23:45.728Z,99499.89
2018-12-20T10:26:14.316Z,99499.85
2018-12-20T10:28:42.919Z,99500.23
2018-12-20T10:31:11.499Z,99496.81
2018-12-20T10:33:40.002Z,99503.77
2018-12-20T10:36:08.561Z,99503.77
2018-12-20T10:38:37.047Z,99495.00
2018-12-20T10:41:05.619Z,99498.92
2018-12-20T10:43:34.172Z,99496.34
2018-12-20T10:46:02.842Z,99495.92
2018-12-20T10:48:31.507Z,99490.23
2018-12-20T10:51:00.020Z,99488.46
2018-12-20T10:53:28.533Z,99488.88
2018-12-20T10:55:57.124Z,99487.62
2018-12-20T10:58:25.823Z,99489.77
2018-12-20T11:00:59.793Z,99489.26
2018-12-20T11:03:34.576Z,99479.22
2018-12-20T11:06:07.308Z,99590.73
2018-12-20T11:08:40.823Z,99484.39
2018-12-20T11:11:11.367Z,99485.69
2018-12-20T11:13:39.835Z,99490.87
2018-12-20T11:16:08.344Z,99486.43
2018-12-20T11:18:36.866Z,99472.36
2018-12-20T11:21:05.411Z,99470.58
2018-12-20T11:23:33.926Z,99219.47
2018-12-20T11:26:02.554Z,99467.02
2018-12-20T11:28:31.106Z,99467.50
2018-12-20T11:30:59.821Z,99466.55
2018-12-20T11:33:28.685Z,99462.25
2018-12-20T11:35:57.389Z,99470.16
2018-12-20T11:38:25.944Z,99456.62
2018-12-20T11:40:54.741Z,99463.09
2018-12-20T11:43:23.594Z,99460.84
2018-12-20T11:45:52.105Z,99455.59
2018-12-20T11:48:20.636Z,99453.36
2018-12-20T11:50:49.165Z,99452.05
2018-12-20T11:53:17.701Z,99455.50
2018-12-20T11:55:46.152Z,99453.39
2018-12-20T11:58:14.922Z,99450.31
2018-12-20T12:00:43.348Z,99447.27
2018-12-20T12:03:11.979Z,99453.77
2018-12-20T12:05:45.217Z,99442.41
2018-12-20T12:08:13.924Z,99441.98
2018-12-20T12:10:42.475Z,99452.52
2018-12-20T12:13:11.066Z,99444.66
2018-12-20T12:15:39.618Z,99452.87
2018-12-20T12:18:08.314Z,99449.00
2018-12-20T12:20:36.917Z,99456.91
2018-12-20T12:23:05.931Z,99452.52
2018-12-20T12:25:34.478Z,99454.66
2018-12-20T12:28:03.102Z,99455.97
2018-12-20T12:30:31.687Z,99449.00
2018-12-20T12:33:00.241Z,99457.69
2018-12-20T12:35:28.789Z,99457.27
2018-12-20T12:37:57.318Z,99453.30
2018-12-20T12:40:27.347Z,99455.45
2018-12-20T12:42:56.213Z,99452.81
2018-12-20T12:45:24.744Z,99453.64
2018-12-20T12:48:03.189Z,99447.98
2018-12-20T12:50:29.449Z,99446.69
2018-12-20T12:52:58.051Z,99444.84
2018-12-20T12:55:26.792Z,99449.19
2018-12-20T12:58:04.436Z,99453.95
2018-12-20T13:00:28.307Z,99458.27
2018-12-20T13:02:56.861Z,99450.84
2018-12-20T13:05:25.584Z,99447.73
2018-12-20T13:07:54.989Z,99452.50
2018-12-20T13:10:23.538Z,99443.81
2018-12-20T13:12:52.282Z,99443.34
2018-12-20T13:15:20.788Z,99449.05
2018-12-20T13:17:49.373Z,99455.64
2018-12-20T13:20:17.974Z,99448.28
2018-12-20T13:22:56.129Z,99440.00
2018-12-20T13:25:24.895Z,99439.95
2018-12-20T13:27:53.590Z,99437.87
2018-12-20T13:30:22.232Z,99443.06
2018-12-20T13:32:50.900Z,99029.72
2018-12-20T13:35:19.676Z,99443.88
2018-12-20T13:37:48.376Z,99436.84
2018-12-20T13:40:17.173Z,99435.08
2018-12-20T13:42:45.859Z,99439.42
2018-12-20T13:45:14.543Z,99429.36
2018-12-20T13:47:43.052Z,99438.05
2018-12-20T13:50:12.778Z,99358.92
2018-12-20T13:52:41.359Z,99432.52
2018-12-20T13:55:09.904Z,99425.95
2018-12-20T13:57:38.521Z,99432.50
2018-12-20T14:00:11.694Z,99436.02
2018-12-20T14:02:40.280Z,99432.56
2018-12-20T14:05:09.176Z,99435.06
2018-12-20T14:07:44.269Z,99442.04
2018-12-20T14:10:25.546Z,99441.14
2018-12-20T14:13:04.067Z,99439.88
2018-12-20T14:15:39.345Z,99442.93
2018-12-20T14:18:20.744Z,99439.47
2018-12-20T14:20:55.713Z,99475.66
2018-12-20T14:23:36.550Z,99438.98
2018-12-20T14:48:52.509Z,99458.82
2018-12-20T15:00:21.603Z,99465.55
2018-12-20T15:03:05.032Z,99470.31
2018-12-20T15:08:55.816Z,99466.08
2018-12-20T15:14:33.294Z,99468.33
2018-12-20T15:17:16.579Z,99467.49
2018-12-20T15:19:55.582Z,99473.57
2018-12-20T15:25:29.458Z,99466.28
2018-12-20T15:28:12.945Z,99466.30
2018-12-20T15:30:45.995Z,99480.31
2018-12-20T15:33:25.165Z,99476.81
2018-12-20T15:36:12.186Z,99469.44
2018-12-20T15:38:53.334Z,99480.47
2018-12-20T15:50:38.846Z,99491.92
2018-12-20T15:53:18.915Z,99487.11
2018-12-20T16:02:05.754Z,99502.84
2018-12-20T16:04:46.414Z,99493.69
2018-12-20T16:10:30.600Z,99505.45
2018-12-20T16:13:04.272Z,99508.03
2018-12-20T16:15:39.598Z,99514.98
2018-12-20T16:18:20.204Z,99515.37
2018-12-20T16:20:49.759Z,99519.75
2018-12-20T16:23:24.248Z,99528.48
2018-12-20T16:32:18.348Z,99533.25
2018-12-20T16:34:53.466Z,99535.44
2018-12-20T16:37:25.758Z,99531.55
2018-12-20T16:39:56.506Z,99586.42
2018-12-20T16:42:25.714Z,99536.75
2018-12-20T16:45:04.359Z,99536.70
2018-12-20T16:47:33.466Z,99543.23
2018-12-20T16:50:09.688Z,99545.38
2018-12-20T16:52:44.307Z,99599.84
2018-12-20T16:55:29.019Z,99545.34
2018-12-20T16:58:21.257Z,99545.84
2018-12-20T17:00:55.982Z,99537.11
2018-12-20T17:03:47.295Z,99540.16
2018-12-20T17:27:43.962Z,99552.52
2018-12-20T17:36:23.931Z,99554.20
2018-12-20T17:45:00.865Z,99542.98
2018-12-20T17:47:38.866Z,99542.09
2018-12-20T17:50:12.235Z,99552.09
2018-12-20T18:49:14.929Z,99544.33
2018-12-20T18:51:43.942Z,99550.87
2018-12-20T18:54:12.755Z,99550.83
2018-12-20T18:56:44.067Z,99553.91
2018-12-20T18:59:12.836Z,99552.13
2018-12-20T19:01:41.845Z,99545.09
2018-12-20T19:04:11.301Z,99551.20
2018-12-20T19:37:07.309Z,99557.78
2018-12-20T19:39:36.915Z,99556.05
2018-12-20T19:42:10.437Z,99558.59
2018-12-20T19:44:38.957Z,99553.83
2018-12-20T19:47:07.599Z,99562.94
2018-12-20T19:49:36.073Z,99562.97
2018-12-20T19:52:04.590Z,99559.94
2018-12-20T19:54:33.075Z,99559.52
2018-12-20T19:57:01.708Z,99563.86
2018-12-20T19:59:38.492Z,99563.86
2018-12-20T20:02:04.530Z,99566.94
2018-12-20T20:04:31.387Z,99558.70
2018-12-20T20:06:59.924Z,99569.63
2018-12-20T20:09:28.446Z,99567.47
2018-12-20T20:11:57.019Z,99571.00
2018-12-20T20:14:25.476Z,99578.38
2018-12-20T20:16:53.949Z,99568.78
2018-12-20T20:19:22.521Z,99555.67
2018-12-20T20:21:50.986Z,99550.90
2018-12-20T20:24:19.450Z,99543.91
2018-12-20T20:26:47.920Z,99554.36
2018-12-20T20:29:16.454Z,99547.83
2018-12-20T20:31:46.335Z,99545.22
2018-12-20T20:34:15.187Z,99541.72
2018-12-20T20:36:43.692Z,99542.56
2018-12-20T20:39:12.140Z,99539.06
2018-12-20T20:41:40.821Z,99534.72
2018-12-20T20:44:09.271Z,99534.30
2018-12-20T20:46:37.750Z,99534.76
2018-12-20T20:49:06.298Z,99536.02
2018-12-20T20:51:34.767Z,99541.67
2018-12-20T20:54:03.268Z,99543.83
2018-12-20T20:56:31.709Z,99540.33
2018-12-20T20:59:02.994Z,99546.06
2018-12-20T21:01:31.525Z,99542.05
2018-12-20T21:04:03.735Z,99542.09
2018-12-20T21:06:30.525Z,99545.14
2018-12-20T21:08:58.931Z,99543.83
2018-12-20T21:11:27.391Z,99540.80
2018-12-20T21:13:55.819Z,99550.75
2018-12-20T21:16:24.328Z,99550.28
2018-12-20T21:18:52.839Z,99553.41
2018-12-20T21:21:21.315Z,99557.36
2018-12-20T21:23:49.779Z,99561.70
2018-12-20T21:26:18.277Z,99563.02
2018-12-20T21:28:46.750Z,99565.17
2018-12-20T21:31:15.248Z,99558.20
2018-12-20T21:33:43.751Z,99555.98
2018-12-20T21:36:12.208Z,99556.44
2018-12-20T21:38:40.743Z,99555.55
2018-12-20T21:41:09.188Z,99549.06
2018-12-20T21:43:37.682Z,99546.91
2018-12-20T21:46:06.110Z,99549.09
2018-12-20T21:48:45.956Z,99546.91
2018-12-20T21:51:14.691Z,99548.21
2018-12-20T21:53:54.666Z,99544.72
2018-12-20T21:56:19.059Z,99548.25
2018-12-20T21:58:57.238Z,99543.87
2018-12-20T22:01:26.997Z,99541.26
2018-12-20T22:03:55.467Z,99542.17
2018-12-20T22:06:26.707Z,99542.59
2018-12-20T22:08:58.704Z,99550.02
2018-12-20T22:11:38.959Z,99546.94
2018-12-20T22:14:09.009Z,99546.91
2018-12-20T22:16:37.558Z,99545.17
2018-12-20T22:19:06.059Z,99546.91
2018-12-20T22:21:34.519Z,99547.75
2018-12-20T22:24:02.981Z,99553.44
2018-12-20T22:26:39.175Z,99544.71
2018-12-20T22:29:19.844Z,99547.72
2018-12-20T22:31:51.430Z,99549.02
2018-12-20T22:34:20.224Z,99549.45
2018-12-20T22:36:48.716Z,99536.80
2018-12-20T22:41:59.337Z,99551.17
2018-12-20T22:44:27.989Z,99545.09
2018-12-20T22:46:56.471Z,99545.09
2018-12-20T22:49:37.400Z,99545.09
2018-12-20T22:52:11.448Z,99543.75
2018-12-20T22:54:40.820Z,99540.25
2018-12-20T23:00:10.476Z,99544.17
2018-12-20T23:02:52.937Z,99535.06
2018-12-20T23:05:21.478Z,99532.44
2018-12-20T23:07:56.237Z,99533.75
2018-12-20T23:13:23.751Z,99530.72
2018-12-20T23:15:52.238Z,99334.92
2018-12-20T23:18:20.817Z,99536.37
2018-12-20T23:21:04.555Z,99527.17
2018-12-20T23:23:26.257Z,99520.63
2018-12-20T23:25:54.779Z,99532.82
2018-12-20T23:28:23.294Z,99520.17
2018-12-20T23:30:51.766Z,99511.06
2018-12-20T23:33:20.256Z,99491.83
2018-12-20T23:35:48.740Z,99495.73
2018-12-20T23:38:17.265Z,99490.50
2018-12-20T23:40:45.784Z,99496.16
2018-12-20T23:43:14.277Z,99488.73
2018-12-20T23:45:42.725Z,99483.03
2018-12-20T23:48:11.237Z,99484.81
2018-12-20T23:50:39.719Z,99484.80
2018-12-20T23:53:08.252Z,99480.83
2018-12-20T23:55:36.874Z,99481.30
2018-12-20T23:58:05.365Z,99483.41
